Cote D IVoirian Star — A8SL4 — position and weather

sailwx.info

Track history (hours):
 
Tides and Currents Weather Stations Pressure Air Temp Water Temp Dewpoint Dewpoint Depression Visibility Wind Speed Wind Dir Waves Ship Positions

Cote D IVoirian Star

Last reported at 2015-Aug-21 08:29 UTC. Time now 2015-Sep-02 12:56 UTC.
Position N 36°54' W 012°55'.
Warning: this ship's position is 12 days out of date.

Length 185 m; draft 8.3 m.

Type: Cargo ship. MMSI: 636014241.

Date/timePositionNaut miles runAvg speedWind from/ knotsBaromVisibWave heightAir tempDewpointWater temp
2015-Aug-21 08:29N 36°54' W 012°55'7919.4
2015-Aug-21 04:25N 38°10' W 012°28'7619.5
2015-Aug-21 00:32N 39°23' W 012°02'83718.2
2015-Aug-19 02:33N 50°29' W 000°08'1918.8
2015-Aug-19 01:33N 50°34' E 000°20'1717.4
2015-Aug-19 00:34N 50°40' E 000°46'1817.5
2015-Aug-18 23:33N 50°52' E 001°06'1919.2
2015-Aug-18 22:33N 51°06' E 001°28'2120.9
2015-Aug-18 21:33N 51°20' E 001°53'1615.8
2015-Aug-18 20:33N 51°20' E 002°18'1716.6
2015-Aug-18 19:32N 51°22' E 002°45'1514.9
2015-Aug-18 18:33N 51°24' E 003°09'1616.4
2015-Aug-18 17:33N 51°26' E 003°35'10 9.9
2015-Aug-18 16:33N 51°21' E 003°49'9 9.3
2015-Aug-18 15:33N 51°26' E 004°02'8 7.7
2015-Aug-18 14:33N 51°23' E 004°13'7 7.1
2015-Aug-18 13:33N 51°16' E 004°17'1 1.1
2015-Aug-18 12:33N 51°16' E 004°15'0 0.4
2015-Aug-18 11:31N 51°16' E 004°15'0 0.0
2015-Aug-18 10:28N 51°16' E 004°15'0 0.0
2015-Aug-18 09:28N 51°16' E 004°15'0 0.0
2015-Aug-18 08:28N 51°16' E 004°15'0 0.0
2015-Aug-18 07:31N 51°16' E 004°15'0 0.0
2015-Aug-18 06:31N 51°16' E 004°15'0 0.0
2015-Aug-18 05:31N 51°16' E 004°15'0 0.0
2015-Aug-18 04:31N 51°16' E 004°15'0 0.0
2015-Aug-18 04:10N 51°16' E 004°15'0 0.0
2015-Aug-18 04:07N 51°16' E 004°15'0 0.0
2015-Aug-18 03:31N 51°16' E 004°15'0 0.0
2015-Aug-18 02:31N 51°16' E 004°15'0 0.0
2015-Aug-18 01:31N 51°16' E 004°15'0 0.0
2015-Aug-18 00:31N 51°16' E 004°15'0 0.0
2015-Aug-17 23:31N 51°16' E 004°15'0 0.0
2015-Aug-17 22:31N 51°16' E 004°15'0 0.0
2015-Aug-17 21:31N 51°16' E 004°15'0 0.0
2015-Aug-17 20:31N 51°16' E 004°15'0 0.0
2015-Aug-17 19:31N 51°16' E 004°15'0 0.0
2015-Aug-17 18:28N 51°16' E 004°15'0 0.0
2015-Aug-17 17:31N 51°16' E 004°15'0 0.0
2015-Aug-17 16:31N 51°16' E 004°15'0 0.0
2015-Aug-17 15:31N 51°16' E 004°15'0 0.0
2015-Aug-17 14:31N 51°16' E 004°15'0 0.0
2015-Aug-17 13:31N 51°16' E 004°15'0 0.0
2015-Aug-17 12:31N 51°16' E 004°15'0 0.0
2015-Aug-17 11:31N 51°16' E 004°15'0 0.0
2015-Aug-17 10:31N 51°16' E 004°15'0 0.0
2015-Aug-17 09:31N 51°16' E 004°15'0 0.0
2015-Aug-17 08:31N 51°16' E 004°15'0 0.0
2015-Aug-17 07:31N 51°16' E 004°15'0 0.0
2015-Aug-17 06:31N 51°16' E 004°15'0 0.0
2015-Aug-17 05:28N 51°16' E 004°15'0 0.0
2015-Aug-17 04:31N 51°16' E 004°15'0 0.0
2015-Aug-17 03:31N 51°16' E 004°15'0 0.0
2015-Aug-17 02:31N 51°16' E 004°15'0 0.0
2015-Aug-17 01:31N 51°16' E 004°15'0 0.0
2015-Aug-17 00:31N 51°16' E 004°15'0 0.0
2015-Aug-16 23:31N 51°16' E 004°15'0 0.0
2015-Aug-16 22:28N 51°16' E 004°15'0 0.0
2015-Aug-16 21:25N 51°16' E 004°15'0 0.0
2015-Aug-16 20:31N 51°16' E 004°15'0 0.0
2015-Aug-16 19:31N 51°16' E 004°15'1 1.4
2015-Aug-16 18:33N 51°16' E 004°17'2 2.1
2015-Aug-16 17:33N 51°18' E 004°19'8 8.0
2015-Aug-16 16:33N 51°22' E 004°08'8 8.4
2015-Aug-16 15:34N 51°22' E 003°55'1211.6
2015-Aug-16 14:33N 51°26' E 003°38'1414.3
2015-Aug-16 13:34N 51°24' E 003°15'1615.5
2015-Aug-16 12:34N 51°22' E 002°50'1110.7
2015-Aug-16 11:33N 51°22' E 002°33'1717.2
2015-Aug-16 10:33N 51°15' E 002°08'1717.4
2015-Aug-16 09:33N 51°06' E 001°44'1716.5
2015-Aug-16 08:32N 50°52' E 001°28'5117.0
2015-Aug-16 05:32N 50°24' E 000°21'3617.3
2015-Aug-16 03:26N 50°27' W 000°35'1617.8
2015-Aug-16 02:33N 50°36' W 000°56'1212.2
2015-Aug-16 01:33N 50°46' W 001°05'2 2.3
2015-Aug-16 00:33N 50°49' W 001°05'0 0.0
2015-Aug-15 23:32N 50°49' W 001°05'0 0.0
2015-Aug-15 22:32N 50°49' W 001°05'0 0.0
2015-Aug-15 21:32N 50°49' W 001°05'0 0.0
2015-Aug-15 20:32N 50°49' W 001°05'0 0.0
2015-Aug-15 19:32N 50°49' W 001°05'0 0.0
2015-Aug-15 18:32N 50°49' W 001°05'0 0.0
2015-Aug-15 17:32N 50°49' W 001°05'0 0.0
2015-Aug-15 16:32N 50°49' W 001°05'0 0.0
2015-Aug-15 15:32N 50°49' W 001°05'0 0.0
2015-Aug-15 14:32N 50°49' W 001°05'0 0.0
2015-Aug-15 13:32N 50°49' W 001°05'0 0.0
2015-Aug-15 12:32N 50°49' W 001°05'0 0.0
2015-Aug-15 11:32N 50°49' W 001°05'0 0.0
2015-Aug-15 10:32N 50°49' W 001°05'0 0.0
2015-Aug-15 09:32N 50°49' W 001°05'0 0.0
2015-Aug-15 08:32N 50°49' W 001°05'0 0.0
2015-Aug-15 07:32N 50°49' W 001°05'0 0.0
2015-Aug-15 06:32N 50°49' W 001°05'0 0.0
2015-Aug-15 05:32N 50°49' W 001°05'1 1.0
2015-Aug-15 04:33N 50°48' W 001°07'8 7.8
2015-Aug-15 03:34N 50°43' W 000°58'1110.6
2015-Aug-15 02:33N 50°32' W 001°02'1 1.5
2015-Aug-15 01:33N 50°32' W 000°60'1010.2
2015-Aug-15 00:33N 50°27' W 001°13'  
2015-Aug-12 03:33N 32°49' W 014°18'1919.1
2015-Aug-12 02:32N 32°30' W 014°24'5719.2
2015-Aug-11 23:33N 31°35' W 014°42'11819.5
2015-Aug-11 17:30N 29°42' W 015°19'4019.8
2015-Aug-11 15:28N 29°03' W 015°32'7818.8
2015-Aug-11 11:19N 27°55' W 016°15'  
Track history (hours):
 
Tides and Currents Weather Stations Pressure Air Temp Water Temp Dewpoint Dewpoint Depression Visibility Wind Speed Wind Dir Waves Ship Positions

Cote D IVoirian Star

Last reported at 2015-Aug-21 08:29 UTC. Time now 2015-Sep-02 12:56 UTC.
Position N 36°54' W 012°55'.
Warning: this ship's position is 12 days out of date.

Length 185 m; draft 8.3 m.

Type: Cargo ship. MMSI: 636014241.

Date/timePositionNaut miles runAvg speedWind from/ knotsBaromVisibWave heightAir tempDewpointWater temp
2015-Aug-21 08:29N 36°54' W 012°55'7919.4
2015-Aug-21 04:25N 38°10' W 012°28'7619.5
2015-Aug-21 00:32N 39°23' W 012°02'83718.2
2015-Aug-19 02:33N 50°29' W 000°08'1918.8
2015-Aug-19 01:33N 50°34' E 000°20'1717.4
2015-Aug-19 00:34N 50°40' E 000°46'1817.5
2015-Aug-18 23:33N 50°52' E 001°06'1919.2
2015-Aug-18 22:33N 51°06' E 001°28'2120.9
2015-Aug-18 21:33N 51°20' E 001°53'1615.8
2015-Aug-18 20:33N 51°20' E 002°18'1716.6
2015-Aug-18 19:32N 51°22' E 002°45'1514.9
2015-Aug-18 18:33N 51°24' E 003°09'1616.4
2015-Aug-18 17:33N 51°26' E 003°35'10 9.9
2015-Aug-18 16:33N 51°21' E 003°49'9 9.3
2015-Aug-18 15:33N 51°26' E 004°02'8 7.7
2015-Aug-18 14:33N 51°23' E 004°13'7 7.1
2015-Aug-18 13:33N 51°16' E 004°17'1 1.1
2015-Aug-18 12:33N 51°16' E 004°15'0 0.4
2015-Aug-18 11:31N 51°16' E 004°15'0 0.0
2015-Aug-18 10:28N 51°16' E 004°15'0 0.0
2015-Aug-18 09:28N 51°16' E 004°15'0 0.0
2015-Aug-18 08:28N 51°16' E 004°15'0 0.0
2015-Aug-18 07:31N 51°16' E 004°15'0 0.0
2015-Aug-18 06:31N 51°16' E 004°15'0 0.0
2015-Aug-18 05:31N 51°16' E 004°15'0 0.0
2015-Aug-18 04:31N 51°16' E 004°15'0 0.0
2015-Aug-18 04:10N 51°16' E 004°15'0 0.0
2015-Aug-18 04:07N 51°16' E 004°15'0 0.0
2015-Aug-18 03:31N 51°16' E 004°15'0 0.0
2015-Aug-18 02:31N 51°16' E 004°15'0 0.0
2015-Aug-18 01:31N 51°16' E 004°15'0 0.0
2015-Aug-18 00:31N 51°16' E 004°15'0 0.0
2015-Aug-17 23:31N 51°16' E 004°15'0 0.0
2015-Aug-17 22:31N 51°16' E 004°15'0 0.0
2015-Aug-17 21:31N 51°16' E 004°15'0 0.0
2015-Aug-17 20:31N 51°16' E 004°15'0 0.0
2015-Aug-17 19:31N 51°16' E 004°15'0 0.0
2015-Aug-17 18:28N 51°16' E 004°15'0 0.0
2015-Aug-17 17:31N 51°16' E 004°15'0 0.0
2015-Aug-17 16:31N 51°16' E 004°15'0 0.0
2015-Aug-17 15:31N 51°16' E 004°15'0 0.0
2015-Aug-17 14:31N 51°16' E 004°15'0 0.0
2015-Aug-17 13:31N 51°16' E 004°15'0 0.0
2015-Aug-17 12:31N 51°16' E 004°15'0 0.0
2015-Aug-17 11:31N 51°16' E 004°15'0 0.0
2015-Aug-17 10:31N 51°16' E 004°15'0 0.0
2015-Aug-17 09:31N 51°16' E 004°15'0 0.0
2015-Aug-17 08:31N 51°16' E 004°15'0 0.0
2015-Aug-17 07:31N 51°16' E 004°15'0 0.0
2015-Aug-17 06:31N 51°16' E 004°15'0 0.0
2015-Aug-17 05:28N 51°16' E 004°15'0 0.0
2015-Aug-17 04:31N 51°16' E 004°15'0 0.0
2015-Aug-17 03:31N 51°16' E 004°15'0 0.0
2015-Aug-17 02:31N 51°16' E 004°15'0 0.0
2015-Aug-17 01:31N 51°16' E 004°15'0 0.0
2015-Aug-17 00:31N 51°16' E 004°15'0 0.0
2015-Aug-16 23:31N 51°16' E 004°15'0 0.0
2015-Aug-16 22:28N 51°16' E 004°15'0 0.0
2015-Aug-16 21:25N 51°16' E 004°15'0 0.0
2015-Aug-16 20:31N 51°16' E 004°15'0 0.0
2015-Aug-16 19:31N 51°16' E 004°15'1 1.4
2015-Aug-16 18:33N 51°16' E 004°17'2 2.1
2015-Aug-16 17:33N 51°18' E 004°19'8 8.0
2015-Aug-16 16:33N 51°22' E 004°08'8 8.4
2015-Aug-16 15:34N 51°22' E 003°55'1211.6
2015-Aug-16 14:33N 51°26' E 003°38'1414.3
2015-Aug-16 13:34N 51°24' E 003°15'1615.5
2015-Aug-16 12:34N 51°22' E 002°50'1110.7
2015-Aug-16 11:33N 51°22' E 002°33'1717.2
2015-Aug-16 10:33N 51°15' E 002°08'1717.4
2015-Aug-16 09:33N 51°06' E 001°44'1716.5
2015-Aug-16 08:32N 50°52' E 001°28'5117.0
2015-Aug-16 05:32N 50°24' E 000°21'3617.3
2015-Aug-16 03:26N 50°27' W 000°35'1617.8
2015-Aug-16 02:33N 50°36' W 000°56'1212.2
2015-Aug-16 01:33N 50°46' W 001°05'2 2.3
2015-Aug-16 00:33N 50°49' W 001°05'0 0.0
2015-Aug-15 23:32N 50°49' W 001°05'0 0.0
2015-Aug-15 22:32N 50°49' W 001°05'0 0.0
2015-Aug-15 21:32N 50°49' W 001°05'0 0.0
2015-Aug-15 20:32N 50°49' W 001°05'0 0.0
2015-Aug-15 19:32N 50°49' W 001°05'0 0.0
2015-Aug-15 18:32N 50°49' W 001°05'0 0.0
2015-Aug-15 17:32N 50°49' W 001°05'0 0.0
2015-Aug-15 16:32N 50°49' W 001°05'0 0.0
2015-Aug-15 15:32N 50°49' W 001°05'0 0.0
2015-Aug-15 14:32N 50°49' W 001°05'0 0.0
2015-Aug-15 13:32N 50°49' W 001°05'0 0.0
2015-Aug-15 12:32N 50°49' W 001°05'0 0.0
2015-Aug-15 11:32N 50°49' W 001°05'0 0.0
2015-Aug-15 10:32N 50°49' W 001°05'0 0.0
2015-Aug-15 09:32N 50°49' W 001°05'0 0.0
2015-Aug-15 08:32N 50°49' W 001°05'0 0.0
2015-Aug-15 07:32N 50°49' W 001°05'0 0.0
2015-Aug-15 06:32N 50°49' W 001°05'0 0.0
2015-Aug-15 05:32N 50°49' W 001°05'1 1.0
2015-Aug-15 04:33N 50°48' W 001°07'8 7.8
2015-Aug-15 03:34N 50°43' W 000°58'1110.6
2015-Aug-15 02:33N 50°32' W 001°02'1 1.5
2015-Aug-15 01:33N 50°32' W 000°60'1010.2
2015-Aug-15 00:33N 50°27' W 001°13'  
2015-Aug-12 03:33N 32°49' W 014°18'1919.1
2015-Aug-12 02:32N 32°30' W 014°24'5719.2
2015-Aug-11 23:33N 31°35' W 014°42'11819.5
2015-Aug-11 17:30N 29°42' W 015°19'4019.8
2015-Aug-11 15:28N 29°03' W 015°32'7818.8
2015-Aug-11 11:19N 27°55' W 016°15'  

Dump ship's entire track history